Time;durP1;ratioP1;P1;durP2;ratioP2;P2;SDS_P1;SDS_P2;PMS_P1;PMS_P2;Temp;Humidity;BMP_temperature;BMP_pressure;BME280_temperature;BME280_humidity;BME280_pressure;Samples;Min_cycle;Max_cycle;Signal;HPM_P1;HPM_P2
2021/03/29 00:01:20;;;;;;;3.80;2.43;;;10.40;99.90;;;;;;5095359;28;20222;-60
2021/03/29 00:03:47;;;;;;;2.93;2.30;;;10.40;99.90;;;;;;5095453;28;20283;-60
2021/03/29 00:06:14;;;;;;;6.17;2.30;;;10.40;99.90;;;;;;5095417;28;20239;-59
2021/03/29 00:08:41;;;;;;;4.17;2.50;;;10.40;99.90;;;;;;5095375;28;20287;-60
2021/03/29 00:11:11;;;;;;;4.03;2.00;;;10.30;99.90;;;;;;5088548;28;20200;-60
2021/03/29 00:13:39;;;;;;;3.20;2.10;;;10.40;99.90;;;;;;5082859;28;20205;-61
2021/03/29 00:16:07;;;;;;;4.83;2.27;;;10.30;99.90;;;;;;5074681;28;20747;-59
2021/03/29 00:18:35;;;;;;;4.63;2.43;;;10.30;99.90;;;;;;5095177;28;20210;-59
2021/03/29 00:21:06;;;;;;;3.63;2.10;;;10.20;99.90;;;;;;5094958;28;20702;-60
2021/03/29 00:23:33;;;;;;;3.83;2.40;;;10.30;99.90;;;;;;5095146;28;20212;-60
2021/03/29 00:26:00;;;;;;;4.20;2.30;;;10.30;99.90;;;;;;5094536;28;20710;-60
2021/03/29 00:28:27;;;;;;;2.87;1.90;;;10.40;99.90;;;;;;5094381;28;20200;-61
2021/03/29 00:30:54;;;;;;;3.67;2.27;;;10.40;99.90;;;;;;5094632;28;20198;-60
2021/03/29 00:33:23;;;;;;;5.83;2.10;;;10.50;99.90;;;;;;5094704;28;20295;-60
2021/03/29 00:35:51;;;;;;;5.53;2.30;;;10.60;99.90;;;;;;5094602;28;20282;-61
2021/03/29 00:38:19;;;;;;;4.23;2.30;;;10.50;99.90;;;;;;5094682;28;20283;-60
2021/03/29 00:40:49;;;;;;;4.47;2.40;;;10.40;99.90;;;;;;5094605;28;20257;-60
2021/03/29 00:43:18;;;;;;;4.13;2.50;;;10.50;99.90;;;;;;5093904;28;20208;-60
2021/03/29 00:45:46;;;;;;;5.63;2.27;;;10.40;99.90;;;;;;5094543;28;20290;-60
2021/03/29 00:48:15;;;;;;;4.93;2.60;;;10.40;99.90;;;;;;5094158;28;20726;-60
2021/03/29 00:50:47;;;;;;;3.90;2.20;;;10.40;99.90;;;;;;5094442;28;20200;-60
2021/03/29 00:53:16;;;;;;;6.17;2.40;;;10.40;99.90;;;;;;5094403;28;20184;-60
2021/03/29 00:55:46;;;;;;;4.47;2.53;;;10.40;99.90;;;;;;5094125;28;20208;-60
2021/03/29 00:58:15;;;;;;;3.50;2.50;;;10.40;99.90;;;;;;5094014;28;20291;-60
2021/03/29 01:00:44;;;;;;;3.90;2.20;;;10.40;99.90;;;;;;5094031;28;20223;-60
2021/03/29 01:03:13;;;;;;;6.10;2.70;;;10.40;99.90;;;;;;5094265;28;20295;-60
2021/03/29 01:05:41;;;;;;;6.50;2.77;;;10.40;99.90;;;;;;5094316;28;20242;-59
2021/03/29 01:08:09;;;;;;;4.50;2.37;;;10.40;99.90;;;;;;5094293;28;20199;-60
2021/03/29 01:10:36;;;;;;;2.27;1.93;;;10.50;99.90;;;;;;5093864;28;20196;-60
2021/03/29 01:13:08;;;;;;;4.23;1.97;;;10.40;99.90;;;;;;5093140;28;20228;-60
2021/03/29 01:15:37;;;;;;;4.40;2.40;;;10.40;99.90;;;;;;5093966;28;20648;-60
2021/03/29 01:18:08;;;;;;;3.53;2.10;;;10.40;99.90;;;;;;5093979;28;20203;-60
2021/03/29 01:20:48;;;;;;;3.43;2.03;;;10.30;99.90;;;;;;5093723;28;20564;-60
2021/03/29 01:23:17;;;;;;;3.70;1.90;;;10.40;99.90;;;;;;5094135;28;20185;-60
2021/03/29 01:25:50;;;;;;;4.50;2.13;;;10.40;99.90;;;;;;5093654;28;20224;-60
2021/03/29 01:28:21;;;;;;;2.77;1.90;;;10.40;99.90;;;;;;5093652;28;20314;-60
2021/03/29 01:30:50;;;;;;;2.33;1.60;;;10.50;99.90;;;;;;5093889;28;20729;-60
2021/03/29 01:33:19;;;;;;;6.77;2.30;;;10.40;99.90;;;;;;5093324;28;20520;-61
2021/03/29 01:35:50;;;;;;;4.10;2.30;;;10.40;99.90;;;;;;5093321;28;20279;-60
2021/03/29 01:38:18;;;;;;;6.10;2.10;;;10.30;99.90;;;;;;5093446;28;20278;-60
2021/03/29 01:40:46;;;;;;;4.17;1.97;;;10.40;99.90;;;;;;5092638;28;20718;-59
2021/03/29 01:43:14;;;;;;;3.77;2.10;;;10.40;99.90;;;;;;5092929;28;20743;-60
2021/03/29 01:45:43;;;;;;;5.63;2.23;;;10.40;99.90;;;;;;5093312;28;20291;-59
2021/03/29 01:48:11;;;;;;;4.67;1.90;;;10.50;99.90;;;;;;5093517;28;20245;-60
2021/03/29 01:50:41;;;;;;;3.07;2.10;;;10.40;99.90;;;;;;5093441;28;20197;-60
2021/03/29 01:53:10;;;;;;;4.57;2.50;;;10.30;99.90;;;;;;5093166;28;20299;-60
2021/03/29 01:55:38;;;;;;;7.37;2.50;;;10.40;99.90;;;;;;5093023;28;20299;-59
2021/03/29 01:58:07;;;;;;;3.60;2.10;;;10.40;99.90;;;;;;5092721;28;20299;-60
2021/03/29 02:00:37;;;;;;;4.03;2.10;;;10.30;99.90;;;;;;5092766;28;20306;-60
2021/03/29 02:03:07;;;;;;;3.93;2.00;;;10.20;99.90;;;;;;5093151;28;20569;-59
2021/03/29 02:05:34;;;;;;;4.07;2.20;;;10.40;99.90;;;;;;5092452;28;20206;-60
2021/03/29 02:08:02;;;;;;;3.60;2.10;;;10.30;99.90;;;;;;5093038;28;20287;-60
2021/03/29 02:10:34;;;;;;;4.40;2.10;;;10.30;99.90;;;;;;5092835;28;20200;-60
2021/03/29 02:13:04;;;;;;;4.43;2.10;;;10.30;99.90;;;;;;5092884;28;20183;-59
2021/03/29 02:15:32;;;;;;;3.80;2.20;;;10.20;99.90;;;;;;5093092;28;20206;-60
2021/03/29 02:18:00;;;;;;;7.60;2.50;;;10.10;99.90;;;;;;5092969;28;20200;-60
2021/03/29 02:20:32;;;;;;;4.30;2.13;;;10.20;99.90;;;;;;5092675;28;20723;-59
2021/03/29 02:23:01;;;;;;;3.87;2.20;;;10.20;99.90;;;;;;5092822;28;20563;-58
2021/03/29 02:25:31;;;;;;;5.00;2.03;;;10.30;99.90;;;;;;5092314;28;20232;-60
2021/03/29 02:28:00;;;;;;;5.30;2.10;;;10.40;99.90;;;;;;5092302;28;20224;-60
2021/03/29 02:30:31;;;;;;;4.43;2.17;;;10.40;99.90;;;;;;5092866;28;20206;-59
2021/03/29 02:32:59;;;;;;;5.80;2.27;;;10.40;99.90;;;;;;5092696;28;20708;-60
2021/03/29 02:35:28;;;;;;;6.00;2.27;;;10.40;99.90;;;;;;5092854;28;20307;-59
2021/03/29 02:37:57;;;;;;;5.37;2.20;;;10.40;99.90;;;;;;5092993;28;20215;-61
2021/03/29 02:40:26;;;;;;;4.50;2.50;;;10.30;99.90;;;;;;5099433;28;20901;-60
2021/03/29 02:42:54;;;;;;;5.13;2.37;;;10.40;99.90;;;;;;5099411;28;20206;-59
2021/03/29 02:45:24;;;;;;;6.30;2.53;;;10.50;99.90;;;;;;5093652;28;20287;-59
2021/03/29 02:47:55;;;;;;;3.63;2.20;;;10.40;99.90;;;;;;5092748;28;20202;-61
2021/03/29 02:50:24;;;;;;;4.93;2.50;;;10.40;99.90;;;;;;5093002;28;20199;-60
2021/03/29 02:52:54;;;;;;;5.23;2.10;;;10.40;99.90;;;;;;5092725;28;20295;-60
2021/03/29 02:55:22;;;;;;;4.00;2.20;;;10.30;99.90;;;;;;5092492;28;20276;-60
2021/03/29 02:57:51;;;;;;;6.50;2.40;;;10.20;99.90;;;;;;5092306;28;20234;-60
2021/03/29 03:00:20;;;;;;;6.40;2.30;;;10.30;99.90;;;;;;5092600;28;20287;-60
2021/03/29 03:02:48;;;;;;;4.30;2.20;;;10.30;99.90;;;;;;5092542;28;20296;-61
2021/03/29 03:05:19;;;;;;;5.20;2.27;;;10.20;99.90;;;;;;5092448;28;20204;-60
2021/03/29 03:07:46;;;;;;;6.63;2.27;;;10.20;99.90;;;;;;5092430;28;20200;-60
2021/03/29 03:10:15;;;;;;;3.27;1.97;;;10.10;99.90;;;;;;5092126;28;20200;-61
2021/03/29 03:12:43;;;;;;;5.33;1.90;;;10.20;99.90;;;;;;5092190;28;20197;-60
2021/03/29 03:15:14;;;;;;;8.23;2.93;;;10.10;99.90;;;;;;5091945;28;20729;-60
2021/03/29 03:17:41;;;;;;;5.83;2.70;;;10.10;99.90;;;;;;5094157;28;20232;-60
2021/03/29 03:20:10;;;;;;;7.20;2.37;;;10.20;99.90;;;;;;5096233;28;20236;-60
2021/03/29 03:22:47;;;;;;;5.77;2.30;;;10.10;99.90;;;;;;5096148;28;20224;-59
2021/03/29 03:25:19;;;;;;;4.70;2.20;;;10.20;99.90;;;;;;5095677;28;20335;-60
2021/03/29 03:27:46;;;;;;;6.77;2.37;;;10.20;99.90;;;;;;5095827;28;20287;-60
2021/03/29 03:30:18;;;;;;;3.93;2.20;;;10.20;99.90;;;;;;5096102;28;20223;-60
2021/03/29 03:32:45;;;;;;;3.53;2.13;;;10.20;99.90;;;;;;5096094;28;20182;-60
2021/03/29 03:35:14;;;;;;;5.23;2.13;;;10.20;99.90;;;;;;5095986;28;20208;-61
2021/03/29 03:37:43;;;;;;;4.57;2.07;;;10.20;99.90;;;;;;5096044;28;20291;-60
2021/03/29 03:40:12;;;;;;;5.37;2.50;;;10.20;99.90;;;;;;5095369;28;20538;-60
2021/03/29 03:42:41;;;;;;;5.70;2.00;;;10.20;99.90;;;;;;5095328;28;20543;-60
2021/03/29 03:45:09;;;;;;;3.63;2.00;;;10.20;99.90;;;;;;5095949;28;20283;-60
2021/03/29 03:47:38;;;;;;;5.90;2.27;;;10.30;99.90;;;;;;5095894;28;20291;-59
2021/03/29 03:50:08;;;;;;;7.23;2.53;;;10.30;99.90;;;;;;5095724;28;20196;-59
2021/03/29 03:52:36;;;;;;;5.57;2.37;;;10.30;99.90;;;;;;5095331;28;20276;-59
2021/03/29 03:55:04;;;;;;;3.17;2.10;;;10.40;99.90;;;;;;5095306;28;20200;-59
2021/03/29 03:57:32;;;;;;;4.80;2.43;;;10.30;99.90;;;;;;5095017;28;20719;-61
2021/03/29 04:00:00;;;;;;;5.30;2.23;;;10.30;99.90;;;;;;5095709;28;20295;-59
2021/03/29 04:02:27;;;;;;;7.60;2.60;;;10.30;99.90;;;;;;5095365;28;20310;-61
2021/03/29 04:04:55;;;;;;;3.97;2.23;;;10.30;99.90;;;;;;5095509;28;20209;-59
2021/03/29 04:07:21;;;;;;;4.30;2.27;;;10.30;99.90;;;;;;5095364;28;20313;-59
2021/03/29 04:09:53;;;;;;;6.90;2.57;;;10.30;99.90;;;;;;5095135;28;20290;-60
2021/03/29 04:12:20;;;;;;;8.80;2.47;;;10.40;99.90;;;;;;5095278;28;20215;-60
2021/03/29 04:14:48;;;;;;;6.70;2.70;;;10.40;99.90;;;;;;5094668;28;20714;-60
2021/03/29 04:17:15;;;;;;;4.47;2.47;;;10.40;99.90;;;;;;5094978;28;20196;-60
2021/03/29 04:19:42;;;;;;;6.93;2.30;;;10.40;99.90;;;;;;5095037;28;20204;-59
2021/03/29 04:22:09;;;;;;;6.00;2.83;;;10.30;99.90;;;;;;5094727;28;20224;-60
2021/03/29 04:24:36;;;;;;;6.93;2.70;;;10.30;99.90;;;;;;5094167;28;20291;-59
2021/03/29 04:27:04;;;;;;;6.40;2.13;;;10.40;99.90;;;;;;5094458;28;20327;-60
2021/03/29 04:29:31;;;;;;;4.97;2.33;;;10.30;99.90;;;;;;5093780;28;20291;-61
2021/03/29 04:31:58;;;;;;;8.93;2.70;;;10.20;99.90;;;;;;5094852;28;20196;-59
2021/03/29 04:34:25;;;;;;;4.23;2.30;;;10.20;99.90;;;;;;5094818;28;20202;-60
2021/03/29 04:36:53;;;;;;;6.97;2.23;;;10.30;99.90;;;;;;5094605;28;20698;-60
2021/03/29 04:39:20;;;;;;;7.67;2.40;;;10.10;99.90;;;;;;5094459;28;20607;-60
2021/03/29 04:41:47;;;;;;;5.73;2.30;;;10.10;99.90;;;;;;5094667;28;20216;-59
2021/03/29 04:44:14;;;;;;;3.80;2.70;;;9.90;99.90;;;;;;5094284;28;20271;-59
2021/03/29 04:46:41;;;;;;;7.37;2.80;;;9.70;99.90;;;;;;5094709;28;20207;-61
2021/03/29 04:49:08;;;;;;;6.10;2.73;;;9.70;99.90;;;;;;5094315;28;20652;-59
2021/03/29 04:51:35;;;;;;;7.03;2.40;;;9.70;99.90;;;;;;5094647;28;20209;-62
2021/03/29 04:54:03;;;;;;;5.80;2.50;;;9.70;99.90;;;;;;5094088;28;20285;-60
2021/03/29 04:56:30;;;;;;;7.07;2.40;;;9.70;99.90;;;;;;5094013;28;20215;-59
2021/03/29 04:58:56;;;;;;;8.57;2.40;;;9.70;99.90;;;;;;5094096;28;20200;-60
2021/03/29 05:01:23;;;;;;;6.33;2.23;;;9.60;99.90;;;;;;5094165;28;20251;-59
2021/03/29 05:03:50;;;;;;;5.80;2.50;;;9.50;99.90;;;;;;5094012;28;20668;-59
2021/03/29 05:06:17;;;;;;;4.23;2.07;;;9.50;99.90;;;;;;5094203;28;20291;-62
2021/03/29 05:08:44;;;;;;;5.17;2.90;;;9.60;99.90;;;;;;5093614;28;20651;-59
2021/03/29 05:11:12;;;;;;;4.03;2.30;;;9.70;99.90;;;;;;5094007;28;20286;-60
2021/03/29 05:13:39;;;;;;;4.63;2.10;;;9.70;99.90;;;;;;5093774;28;20200;-59
2021/03/29 05:16:06;;;;;;;6.93;2.43;;;9.70;99.90;;;;;;5093630;28;20290;-60
2021/03/29 05:18:33;;;;;;;5.80;2.50;;;9.80;99.90;;;;;;5092975;28;20655;-59
2021/03/29 05:21:00;;;;;;;4.80;2.37;;;9.80;99.90;;;;;;5093901;28;20192;-60
2021/03/29 05:23:27;;;;;;;3.33;2.40;;;9.80;99.90;;;;;;5093368;28;20239;-60
2021/03/29 05:25:54;;;;;;;4.33;2.20;;;9.90;99.90;;;;;;5093338;28;20260;-59
2021/03/29 05:28:21;;;;;;;3.30;1.97;;;9.80;99.90;;;;;;5093176;28;20611;-61
2021/03/29 05:30:48;;;;;;;5.87;2.50;;;9.80;99.90;;;;;;5093497;28;20242;-59
2021/03/29 05:33:15;;;;;;;5.57;2.13;;;9.80;99.90;;;;;;5084720;28;20292;-60
2021/03/29 05:35:42;;;;;;;8.33;2.40;;;9.70;99.90;;;;;;5078588;28;20300;-59
2021/03/29 05:38:10;;;;;;;6.80;2.30;;;9.60;99.90;;;;;;5073268;28;20581;-59
2021/03/29 05:40:37;;;;;;;5.73;2.50;;;9.70;99.90;;;;;;5071689;28;20716;-60
2021/03/29 05:43:05;;;;;;;3.13;2.07;;;9.70;99.90;;;;;;5072678;28;20311;-61
2021/03/29 05:45:32;;;;;;;5.07;2.30;;;9.70;99.90;;;;;;5072784;28;20247;-59
2021/03/29 05:47:59;;;;;;;6.30;2.67;;;9.60;99.90;;;;;;5073118;28;20262;-60
2021/03/29 05:50:26;;;;;;;4.60;1.93;;;9.70;99.90;;;;;;5072998;28;20287;-59
2021/03/29 05:52:53;;;;;;;5.60;2.47;;;9.60;99.90;;;;;;5073227;28;20287;-60
2021/03/29 05:55:30;;;;;;;7.10;2.57;;;9.70;99.90;;;;;;5072580;28;20682;-60
2021/03/29 05:58:20;;;;;;;4.53;2.50;;;9.80;99.90;;;;;;5072339;28;21057;-60
2021/03/29 06:00:47;;;;;;;5.97;2.30;;;9.90;99.90;;;;;;5072875;28;20185;-60
2021/03/29 06:03:27;;;;;;;11.50;3.20;;;10.00;99.90;;;;;;5083179;28;20303;-61
2021/03/29 06:05:57;;;;;;;6.77;2.70;;;10.00;99.90;;;;;;5079558;28;20199;-59
2021/03/29 06:08:25;;;;;;;6.33;2.60;;;10.10;99.90;;;;;;5073467;28;20291;-60
2021/03/29 06:10:54;;;;;;;7.23;2.63;;;10.20;99.90;;;;;;5088101;28;20643;-60
2021/03/29 06:13:24;;;;;;;8.33;2.53;;;10.30;99.90;;;;;;5074318;28;20262;-60
2021/03/29 06:16:07;;;;;;;8.83;2.50;;;10.50;99.90;;;;;;5072072;28;20224;-59
2021/03/29 06:18:35;;;;;;;7.70;2.90;;;10.60;99.90;;;;;;5072600;28;20228;-59
2021/03/29 06:21:07;;;;;;;7.73;3.10;;;10.80;99.90;;;;;;5072691;28;20278;-61
2021/03/29 06:23:36;;;;;;;6.77;3.10;;;10.90;99.90;;;;;;5072383;28;20197;-61
2021/03/29 06:26:21;;;;;;;6.80;2.93;;;11.20;99.90;;;;;;5079658;28;20685;-60
2021/03/29 06:28:48;;;;;;;11.03;2.67;;;11.40;99.90;;;;;;5073347;28;20203;-59
2021/03/29 06:31:24;;;;;;;5.30;2.50;;;11.50;99.90;;;;;;5072695;28;20208;-60
2021/03/29 06:33:52;;;;;;;7.50;2.63;;;11.70;99.90;;;;;;5072755;28;20181;-60
2021/03/29 06:36:30;;;;;;;5.13;2.60;;;11.80;99.90;;;;;;5072557;28;20205;-60
2021/03/29 06:39:13;;;;;;;5.97;2.50;;;11.80;99.90;;;;;;5072313;28;20232;-59
2021/03/29 06:41:41;;;;;;;7.17;3.23;;;11.90;99.90;;;;;;5072995;28;20328;-60
2021/03/29 06:44:22;;;;;;;7.00;3.07;;;12.00;99.90;;;;;;5091539;28;20231;-59
2021/03/29 06:46:50;;;;;;;7.03;3.00;;;12.10;99.90;;;;;;5082237;28;20195;-59
2021/03/29 06:49:37;;;;;;;4.73;2.67;;;12.20;99.90;;;;;;5086564;28;20199;-60
2021/03/29 06:52:20;;;;;;;6.57;2.60;;;12.40;99.90;;;;;;5084185;28;20310;-61
2021/03/29 06:54:48;;;;;;;9.20;3.03;;;12.60;99.90;;;;;;5084652;28;20216;-59
2021/03/29 06:57:26;;;;;;;6.60;2.80;;;12.70;99.90;;;;;;5092136;28;20303;-60
2021/03/29 06:59:54;;;;;;;6.87;2.90;;;12.70;99.90;;;;;;5093483;28;20613;-64
2021/03/29 07:02:37;;;;;;;4.67;2.47;;;12.80;99.90;;;;;;5097975;28;20759;-64
2021/03/29 07:05:06;;;;;;;7.17;2.70;;;12.70;99.90;;;;;;5097249;28;20271;-61
2021/03/29 07:07:33;;;;;;;8.70;3.07;;;12.70;99.90;;;;;;5092186;28;20939;-60
2021/03/29 07:10:02;;;;;;;8.33;3.03;;;12.60;99.90;;;;;;5093342;28;20218;-59
2021/03/29 07:12:34;;;;;;;5.70;2.80;;;12.60;99.90;;;;;;5091785;28;20607;-61
2021/03/29 07:15:04;;;;;;;6.77;3.10;;;12.50;99.90;;;;;;5092234;28;20716;-60
2021/03/29 07:17:32;;;;;;;8.00;2.93;;;12.50;99.90;;;;;;5092731;28;20231;-61
2021/03/29 07:20:00;;;;;;;4.93;2.60;;;12.50;99.90;;;;;;5092734;28;20684;-61
2021/03/29 07:22:28;;;;;;;6.47;3.00;;;12.50;99.90;;;;;;5092175;28;20278;-60
2021/03/29 07:25:02;;;;;;;6.10;2.97;;;12.70;99.90;;;;;;5091992;28;20208;-61
2021/03/29 07:27:31;;;;;;;8.00;2.90;;;12.80;99.90;;;;;;5092813;28;20202;-62
2021/03/29 07:29:58;;;;;;;6.23;2.90;;;12.90;99.90;;;;;;5087716;28;20200;-61
2021/03/29 07:32:30;;;;;;;8.40;3.20;;;12.90;99.90;;;;;;5082218;28;20300;-61
2021/03/29 07:34:58;;;;;;;5.17;2.80;;;12.90;99.90;;;;;;5072300;28;20588;-59
2021/03/29 07:37:34;;;;;;;7.80;3.30;;;13.00;99.90;;;;;;5071808;28;20205;-61
2021/03/29 07:40:04;;;;;;;8.57;3.20;;;12.90;99.90;;;;;;5072424;28;20235;-61
2021/03/29 07:42:38;;;;;;;7.63;3.30;;;13.00;99.90;;;;;;5090173;28;20242;-60
2021/03/29 07:45:10;;;;;;;11.40;3.20;;;13.10;99.90;;;;;;5087771;28;20656;-60
2021/03/29 07:47:49;;;;;;;5.50;3.13;;;13.30;99.90;;;;;;5081132;28;20283;-59
2021/03/29 07:50:19;;;;;;;8.57;3.30;;;13.50;99.90;;;;;;5088679;28;20271;-59
2021/03/29 07:52:52;;;;;;;8.30;2.73;;;13.70;99.90;;;;;;5091861;28;20198;-61
2021/03/29 07:55:22;;;;;;;7.50;3.40;;;13.90;99.90;;;;;;5092155;28;20242;-60
2021/03/29 07:58:07;;;;;;;9.90;3.63;;;14.00;99.90;;;;;;5091819;28;20272;-60
2021/03/29 08:00:49;;;;;;;14.75;4.00;;;14.10;99.90;;;;;;5091745;28;20282;-59
2021/03/29 08:03:35;;;;;;;9.60;3.20;;;14.10;99.90;;;;;;5090929;28;20239;-60
2021/03/29 08:06:03;;;;;;;8.60;3.30;;;14.20;99.90;;;;;;5091763;28;21032;-61
2021/03/29 08:08:41;;;;;;;6.45;3.63;;;14.20;99.90;;;;;;5090840;28;20365;-61
2021/03/29 08:11:10;;;;;;;7.60;3.58;;;14.30;99.90;;;;;;5092023;28;20200;-61
2021/03/29 08:13:40;;;;;;;5.40;3.25;;;14.20;99.90;;;;;;5091124;28;20208;-62
2021/03/29 08:16:08;;;;;;;7.50;3.20;;;14.10;99.90;;;;;;5088848;28;20231;-59
2021/03/29 08:19:10;;;;;;;8.37;3.20;;;14.00;99.90;;;;;;5091446;28;20628;-60
2021/03/29 08:21:49;;;;;;;7.53;3.53;;;14.00;99.90;;;;;;5091170;28;20548;-61
2021/03/29 08:24:19;;;;;;;9.40;3.50;;;14.10;99.90;;;;;;5090601;28;20655;-62
2021/03/29 08:26:47;;;;;;;6.80;3.45;;;14.20;99.90;;;;;;5090031;28;20331;-61
2021/03/29 08:29:15;;;;;;;9.10;3.90;;;14.30;99.90;;;;;;5087865;28;20196;-59
2021/03/29 08:32:03;;;;;;;9.07;4.07;;;14.30;99.90;;;;;;5090282;28;20284;-59
2021/03/29 08:34:32;;;;;;;9.13;4.25;;;14.40;99.90;;;;;;5091545;28;20196;-60
2021/03/29 08:37:01;;;;;;;8.07;4.32;;;14.50;99.90;;;;;;5090535;28;20323;-62
2021/03/29 08:39:33;;;;;;;9.00;4.70;;;14.50;99.90;;;;;;5085479;28;20204;-59
2021/03/29 08:42:02;;;;;;;9.13;4.55;;;14.50;99.90;;;;;;5070346;28;20709;-61
2021/03/29 08:44:30;;;;;;;9.63;4.25;;;14.70;99.90;;;;;;5070359;28;20295;-62
2021/03/29 08:46:57;;;;;;;6.95;4.13;;;14.80;99.90;;;;;;5070781;28;20696;-61
2021/03/29 08:49:25;;;;;;;9.73;4.40;;;14.90;99.90;;;;;;5082174;28;20281;-62
2021/03/29 08:51:53;;;;;;;9.63;4.75;;;15.00;99.90;;;;;;5090441;28;20214;-58
2021/03/29 08:54:20;;;;;;;12.52;4.80;;;15.00;99.90;;;;;;5090759;28;20200;-59
2021/03/29 08:56:51;;;;;;;9.40;4.68;;;15.00;99.90;;;;;;5090610;28;20272;-60
2021/03/29 08:59:26;;;;;;;8.73;4.57;;;15.00;99.90;;;;;;5090664;28;20267;-61
2021/03/29 09:01:53;;;;;;;10.55;5.20;;;15.00;99.90;;;;;;5090374;28;20243;-60
2021/03/29 09:04:20;;;;;;;8.30;4.28;;;15.10;99.90;;;;;;5090136;28;20572;-61
2021/03/29 09:06:55;;;;;;;9.15;4.65;;;15.30;99.90;;;;;;5090188;28;20200;-59
2021/03/29 09:09:23;;;;;;;11.02;5.00;;;15.30;99.90;;;;;;5090599;28;20249;-59
2021/03/29 09:11:52;;;;;;;8.13;4.53;;;15.30;99.90;;;;;;5090056;28;20330;-59
2021/03/29 09:14:20;;;;;;;9.38;4.90;;;15.30;99.90;;;;;;5090206;28;20282;-60
2021/03/29 09:16:56;;;;;;;8.82;4.60;;;15.30;99.90;;;;;;5089469;28;20227;-60
2021/03/29 09:19:23;;;;;;;12.80;5.28;;;15.20;99.90;;;;;;5089267;28;20287;-60
2021/03/29 09:21:55;;;;;;;9.85;4.70;;;15.10;99.90;;;;;;5089750;28;20250;-58
2021/03/29 09:24:24;;;;;;;8.55;4.32;;;14.90;99.90;;;;;;5089993;28;20231;-59
2021/03/29 09:27:00;;;;;;;7.57;4.47;;;14.80;99.90;;;;;;5083990;28;20689;-60
2021/03/29 09:29:35;;;;;;;8.88;4.60;;;14.90;99.90;;;;;;5083113;28;20286;-61
2021/03/29 09:32:07;;;;;;;8.60;4.03;;;15.20;99.90;;;;;;5089091;28;20648;-61
2021/03/29 09:34:35;;;;;;;10.15;4.65;;;15.60;99.90;;;;;;5088250;28;20867;-60
2021/03/29 09:37:02;;;;;;;9.55;4.47;;;15.70;99.90;;;;;;5088759;28;20192;-60
2021/03/29 09:39:30;;;;;;;6.50;4.10;;;15.70;99.90;;;;;;5088875;28;20219;-61
2021/03/29 09:42:01;;;;;;;11.77;4.80;;;15.60;99.90;;;;;;5086397;28;20285;-61
2021/03/29 09:44:30;;;;;;;10.32;4.00;;;15.50;99.90;;;;;;5088544;28;20196;-61
2021/03/29 09:46:58;;;;;;;10.95;4.95;;;15.50;99.90;;;;;;5089557;28;20204;-59
2021/03/29 09:49:26;;;;;;;11.45;4.65;;;15.60;99.90;;;;;;5089499;28;20295;-59
2021/03/29 09:52:04;;;;;;;9.20;4.50;;;15.60;99.90;;;;;;5089022;28;20290;-57
2021/03/29 09:54:33;;;;;;;10.02;4.47;;;15.70;99.90;;;;;;5089059;28;20643;-58
2021/03/29 09:57:14;;;;;;;9.27;4.30;;;15.70;99.90;;;;;;5089090;28;20290;-56
2021/03/29 09:59:43;;;;;;;8.70;3.83;;;15.90;99.90;;;;;;5089199;28;20195;-53
2021/03/29 10:02:13;;;;;;;8.35;4.20;;;16.00;99.90;;;;;;5089274;28;20277;-59
2021/03/29 10:04:41;;;;;;;11.00;4.57;;;16.30;99.90;;;;;;5089433;28;20218;-60
2021/03/29 10:07:13;;;;;;;8.80;4.30;;;16.50;99.90;;;;;;5089181;28;20196;-56
2021/03/29 10:09:44;;;;;;;7.90;4.55;;;16.60;99.90;;;;;;5089441;28;20656;-57
2021/03/29 10:12:23;;;;;;;9.73;4.05;;;16.40;99.90;;;;;;5089378;28;20177;-56
2021/03/29 10:14:50;;;;;;;8.82;3.88;;;16.30;99.90;;;;;;5089182;28;20188;-59
2021/03/29 10:17:18;;;;;;;7.95;3.70;;;16.40;99.90;;;;;;5089032;28;20206;-59
2021/03/29 10:19:47;;;;;;;8.60;4.28;;;16.50;99.90;;;;;;5089127;28;20196;-58
2021/03/29 10:22:15;;;;;;;7.82;3.95;;;16.50;99.90;;;;;;5088591;28;20231;-59
2021/03/29 10:25:05;;;;;;;8.63;4.40;;;16.60;99.90;;;;;;5080134;28;20664;-59
2021/03/29 10:27:46;;;;;;;8.77;3.92;;;16.70;99.90;;;;;;5073725;28;20736;-58
2021/03/29 10:30:23;;;;;;;8.05;3.80;;;16.80;99.90;;;;;;5089123;28;20275;-59
2021/03/29 10:32:51;;;;;;;8.45;3.67;;;16.90;99.90;;;;;;5089512;28;20548;-59
2021/03/29 10:35:19;;;;;;;9.43;3.92;;;16.80;99.90;;;;;;5088697;28;20200;-59
2021/03/29 10:37:47;;;;;;;8.07;4.22;;;16.80;99.90;;;;;;5089456;28;20227;-59
2021/03/29 10:40:15;;;;;;;12.65;3.92;;;16.80;99.90;;;;;;5089409;28;20295;-58
2021/03/29 10:42:43;;;;;;;7.78;3.78;;;16.80;99.90;;;;;;5088759;28;21082;-59
2021/03/29 10:45:12;;;;;;;7.95;3.47;;;16.90;99.90;;;;;;5087719;28;20290;-59
2021/03/29 10:47:40;;;;;;;8.05;3.10;;;17.00;99.90;;;;;;5088143;28;20234;-59
2021/03/29 10:50:08;;;;;;;6.53;3.38;;;17.20;99.90;;;;;;5087956;28;20200;-60
2021/03/29 10:52:36;;;;;;;7.07;3.40;;;17.30;99.90;;;;;;5069325;28;20295;-59
2021/03/29 10:55:04;;;;;;;6.47;3.35;;;17.40;99.90;;;;;;5074644;28;20606;-59
2021/03/29 10:57:31;;;;;;;6.55;3.30;;;17.50;99.90;;;;;;5088726;28;20200;-59
2021/03/29 10:59:59;;;;;;;6.72;3.60;;;17.70;99.90;;;;;;5088918;28;20627;-61
2021/03/29 11:02:26;;;;;;;9.77;3.30;;;17.90;99.90;;;;;;5086786;28;20302;-59
2021/03/29 11:04:53;;;;;;;9.93;3.88;;;17.80;99.90;;;;;;5087658;28;20209;-60
2021/03/29 11:07:20;;;;;;;8.10;3.97;;;17.80;99.90;;;;;;5085485;28;20189;-59
2021/03/29 11:09:47;;;;;;;7.57;3.10;;;17.60;99.90;;;;;;5088087;28;20208;-60
2021/03/29 11:12:14;;;;;;;7.53;3.10;;;17.50;99.90;;;;;;5075059;28;20216;-60
2021/03/29 11:14:41;;;;;;;5.85;2.65;;;17.40;99.90;;;;;;5073045;28;20227;-58
2021/03/29 11:17:10;;;;;;;10.50;3.22;;;17.30;99.90;;;;;;5079336;28;20293;-60
2021/03/29 11:19:37;;;;;;;6.43;3.92;;;17.10;99.90;;;;;;5088793;28;20195;-60
2021/03/29 11:22:04;;;;;;;9.77;3.33;;;17.00;99.90;;;;;;5088777;28;20230;-59
2021/03/29 11:24:31;;;;;;;5.60;3.17;;;17.00;99.90;;;;;;5089163;28;20227;-60
2021/03/29 11:26:58;;;;;;;5.00;2.85;;;17.30;99.90;;;;;;5087955;28;20224;-61
2021/03/29 11:29:25;;;;;;;4.90;2.67;;;17.70;99.90;;;;;;5087095;28;20287;-60
2021/03/29 11:31:52;;;;;;;7.03;3.13;;;17.90;99.90;;;;;;5088484;28;20642;-59
2021/03/29 11:34:19;;;;;;;7.03;2.50;;;18.20;99.90;;;;;;5088912;28;20291;-60
2021/03/29 11:36:46;;;;;;;7.72;3.00;;;18.30;99.90;;;;;;5088820;28;20302;-59
2021/03/29 11:39:13;;;;;;;7.82;2.78;;;18.30;99.90;;;;;;5091522;28;20310;-58
2021/03/29 11:41:41;;;;;;;7.90;2.97;;;18.20;99.90;;;;;;5086136;28;20291;-61
2021/03/29 11:44:09;;;;;;;6.93;2.75;;;18.20;99.90;;;;;;5072065;28;20294;-60
2021/03/29 11:46:36;;;;;;;8.40;3.25;;;18.20;99.90;;;;;;5072115;28;20635;-62
2021/03/29 11:49:03;;;;;;;5.80;2.90;;;18.40;99.90;;;;;;5080886;28;20200;-60
2021/03/29 11:51:32;;;;;;;4.38;2.70;;;18.40;99.90;;;;;;5091679;28;20204;-60
2021/03/29 11:53:59;;;;;;;6.72;2.70;;;18.40;99.90;;;;;;5092172;28;20197;-59
2021/03/29 11:56:26;;;;;;;6.55;3.00;;;18.30;99.90;;;;;;5092209;28;20287;-61
2021/03/29 11:58:53;;;;;;;7.63;3.03;;;18.30;99.90;;;;;;5091622;28;20584;-59
2021/03/29 12:01:31;;;;;;;5.80;2.95;;;18.30;99.90;;;;;;5092011;28;20296;-61
2021/03/29 12:03:59;;;;;;;10.82;3.22;;;18.40;99.90;;;;;;5091537;28;20215;-61
2021/03/29 12:06:30;;;;;;;6.35;3.10;;;18.40;99.90;;;;;;5091528;28;20200;-61
2021/03/29 12:09:06;;;;;;;6.32;3.10;;;18.30;99.90;;;;;;5092006;28;20212;-61
2021/03/29 12:14:34;;;;;;;8.77;3.40;;;18.20;99.90;;;;;;5091753;28;20837;-60
2021/03/29 12:17:03;;;;;;;7.90;3.33;;;18.00;99.90;;;;;;5092110;28;20200;-60
2021/03/29 12:19:30;;;;;;;7.07;3.00;;;18.10;99.90;;;;;;5091765;28;20206;-60
2021/03/29 12:22:03;;;;;;;6.55;3.05;;;18.20;99.90;;;;;;5091654;28;20529;-60
2021/03/29 12:24:34;;;;;;;6.60;3.33;;;18.30;99.90;;;;;;5090795;28;20554;-59
2021/03/29 12:27:02;;;;;;;5.47;3.25;;;18.60;99.90;;;;;;5090530;28;20966;-58
2021/03/29 12:29:36;;;;;;;7.05;3.38;;;18.80;99.90;;;;;;5091808;28;20325;-58
2021/03/29 12:32:05;;;;;;;6.10;3.08;;;19.10;99.90;;;;;;5091187;28;20186;-58
2021/03/29 12:34:34;;;;;;;7.35;3.42;;;19.30;99.90;;;;;;5090968;28;20374;-60
2021/03/29 12:37:02;;;;;;;6.82;3.53;;;19.40;99.90;;;;;;5091853;28;20570;-62
2021/03/29 12:39:35;;;;;;;8.80;3.42;;;19.50;98.50;;;;;;5091718;28;21097;-59
2021/03/29 12:42:05;;;;;;;7.03;3.40;;;19.40;99.30;;;;;;5091361;28;20188;-58
2021/03/29 12:44:33;;;;;;;9.75;3.40;;;19.30;98.50;;;;;;5091708;28;20349;-60
2021/03/29 12:47:03;;;;;;;8.73;3.80;;;19.20;98.90;;;;;;5091613;28;20199;-60
2021/03/29 12:49:30;;;;;;;6.13;2.85;;;19.10;98.70;;;;;;5090404;28;20211;-58
2021/03/29 12:52:00;;;;;;;9.85;3.50;;;18.90;98.00;;;;;;5091303;28;20315;-61
2021/03/29 12:54:28;;;;;;;8.23;3.10;;;18.70;97.70;;;;;;5091023;28;20203;-59
2021/03/29 12:56:57;;;;;;;4.72;2.97;;;18.60;97.50;;;;;;5090961;28;20243;-59
2021/03/29 12:59:25;;;;;;;5.57;3.00;;;18.40;98.80;;;;;;5091221;28;20607;-60
2021/03/29 13:01:53;;;;;;;9.02;3.28;;;18.30;97.80;;;;;;5090920;28;20204;-60
2021/03/29 13:04:23;;;;;;;6.88;2.83;;;18.20;97.70;;;;;;5090767;28;20216;-60